sensor_id;sensor_type;location;lat;lon;timestamp;pressure;altitude;pressure_sealevel;temperature;humidity
17764;BME280;22245;52.832;13.816;2022-10-03T00:06:56;101529.47;;;10.71;88.00
17764;BME280;22245;52.832;13.816;2022-10-03T00:10:28;101528.28;;;10.75;87.75
17764;BME280;22245;52.832;13.816;2022-10-03T00:13:57;101534.34;;;10.77;87.84
17764;BME280;22245;52.832;13.816;2022-10-03T00:17:26;101540.19;;;10.82;88.03
17764;BME280;22245;52.832;13.816;2022-10-03T00:21:02;101540.09;;;10.84;87.46
17764;BME280;22245;52.832;13.816;2022-10-03T00:24:39;101542.75;;;10.84;87.30
17764;BME280;22245;52.832;13.816;2022-10-03T00:28:11;101535.59;;;10.84;87.64
17764;BME280;22245;52.832;13.816;2022-10-03T00:31:42;101538.50;;;10.81;87.30
17764;BME280;22245;52.832;13.816;2022-10-03T00:35:17;101530.50;;;10.81;87.89
17764;BME280;22245;52.832;13.816;2022-10-03T00:38:52;101532.09;;;10.84;87.42
17764;BME280;22245;52.832;13.816;2022-10-03T00:42:48;101540.09;;;10.84;87.02
17764;BME280;22245;52.832;13.816;2022-10-03T00:46:47;101549.06;;;10.83;87.93
17764;BME280;22245;52.832;13.816;2022-10-03T00:50:40;101552.78;;;10.80;87.72
17764;BME280;22245;52.832;13.816;2022-10-03T00:54:17;101560.88;;;10.79;88.23
17764;BME280;22245;52.832;13.816;2022-10-03T00:58:16;101561.72;;;10.79;88.37
17764;BME280;22245;52.832;13.816;2022-10-03T01:01:44;101545.75;;;10.79;88.36
17764;BME280;22245;52.832;13.816;2022-10-03T01:05:14;101545.66;;;10.81;88.64
17764;BME280;22245;52.832;13.816;2022-10-03T01:08:47;101555.53;;;10.79;88.27
17764;BME280;22245;52.832;13.816;2022-10-03T01:12:26;101559.16;;;10.78;88.59
17764;BME280;22245;52.832;13.816;2022-10-03T01:15:56;101554.38;;;10.83;88.64
17764;BME280;22245;52.832;13.816;2022-10-03T01:19:48;101562.00;;;10.88;88.32
17764;BME280;22245;52.832;13.816;2022-10-03T01:27:05;101566.88;;;10.94;88.80
17764;BME280;22245;52.832;13.816;2022-10-03T01:30:37;101566.66;;;10.97;89.10
17764;BME280;22245;52.832;13.816;2022-10-03T01:34:04;101560.25;;;10.99;88.29
17764;BME280;22245;52.832;13.816;2022-10-03T01:37:32;101565.50;;;11.01;88.66
17764;BME280;22245;52.832;13.816;2022-10-03T01:41:04;101558.84;;;11.07;88.33
17764;BME280;22245;52.832;13.816;2022-10-03T01:44:38;101563.19;;;11.08;88.35
17764;BME280;22245;52.832;13.816;2022-10-03T01:48:05;101571.09;;;11.09;88.26
17764;BME280;22245;52.832;13.816;2022-10-03T01:51:32;101572.16;;;11.07;88.56
17764;BME280;22245;52.832;13.816;2022-10-03T01:55:00;101570.13;;;11.10;88.81
17764;BME280;22245;52.832;13.816;2022-10-03T01:58:28;101570.75;;;11.14;88.08
17764;BME280;22245;52.832;13.816;2022-10-03T02:02:01;101556.09;;;11.20;88.39
17764;BME280;22245;52.832;13.816;2022-10-03T02:05:38;101569.44;;;11.20;88.20
17764;BME280;22245;52.832;13.816;2022-10-03T02:09:07;101571.13;;;11.21;87.45
17764;BME280;22245;52.832;13.816;2022-10-03T02:12:34;101568.38;;;11.22;88.07
17764;BME280;22245;52.832;13.816;2022-10-03T02:16:03;101572.75;;;11.23;87.41
17764;BME280;22245;52.832;13.816;2022-10-03T02:19:30;101575.03;;;11.28;87.16
17764;BME280;22245;52.832;13.816;2022-10-03T02:22:58;101574.22;;;11.27;86.77
17764;BME280;22245;52.832;13.816;2022-10-03T02:26:53;101576.50;;;11.32;87.06
17764;BME280;22245;52.832;13.816;2022-10-03T02:30:19;101583.69;;;11.32;87.55
17764;BME280;22245;52.832;13.816;2022-10-03T02:34:12;101585.25;;;11.34;87.08
17764;BME280;22245;52.832;13.816;2022-10-03T02:37:51;101588.44;;;11.39;86.54
17764;BME280;22245;52.832;13.816;2022-10-03T02:41:44;101587.34;;;11.42;86.44
17764;BME280;22245;52.832;13.816;2022-10-03T02:53:30;101597.53;;;11.48;85.94
17764;BME280;22245;52.832;13.816;2022-10-03T03:05:17;101602.78;;;11.50;85.72
17764;BME280;22245;52.832;13.816;2022-10-03T03:09:00;101613.31;;;11.51;85.07
17764;BME280;22245;52.832;13.816;2022-10-03T03:12:59;101608.84;;;11.52;85.48
17764;BME280;22245;52.832;13.816;2022-10-03T03:16:49;101618.66;;;11.51;85.56
17764;BME280;22245;52.832;13.816;2022-10-03T03:20:27;101608.84;;;11.52;85.34
17764;BME280;22245;52.832;13.816;2022-10-03T03:24:21;101609.47;;;11.55;85.23
17764;BME280;22245;52.832;13.816;2022-10-03T03:28:00;101612.47;;;11.51;84.99
17764;BME280;22245;52.832;13.816;2022-10-03T03:31:27;101618.66;;;11.51;85.24
17764;BME280;22245;52.832;13.816;2022-10-03T03:35:04;101622.06;;;11.53;85.44
17764;BME280;22245;52.832;13.816;2022-10-03T03:38:34;101623.88;;;11.53;84.62
17764;BME280;22245;52.832;13.816;2022-10-03T03:42:08;101623.38;;;11.48;84.72
17764;BME280;22245;52.832;13.816;2022-10-03T03:45:49;101629.31;;;11.51;84.79
17764;BME280;22245;52.832;13.816;2022-10-03T03:49:36;101624.94;;;11.50;84.78
17764;BME280;22245;52.832;13.816;2022-10-03T03:53:25;101628.16;;;11.55;84.60
17764;BME280;22245;52.832;13.816;2022-10-03T03:57:04;101636.25;;;11.54;84.25
17764;BME280;22245;52.832;13.816;2022-10-03T04:00:44;101645.00;;;11.56;84.72
17764;BME280;22245;52.832;13.816;2022-10-03T04:04:20;101647.03;;;11.52;85.16
17764;BME280;22245;52.832;13.816;2022-10-03T04:08:02;101649.59;;;11.54;85.75
17764;BME280;22245;52.832;13.816;2022-10-03T04:11:41;101658.22;;;11.57;85.81
17764;BME280;22245;52.832;13.816;2022-10-03T04:15:22;101662.84;;;11.55;87.40
17764;BME280;22245;52.832;13.816;2022-10-03T04:18:57;101677.69;;;11.47;89.13
17764;BME280;22245;52.832;13.816;2022-10-03T04:22:29;101671.56;;;11.33;89.89
17764;BME280;22245;52.832;13.816;2022-10-03T04:26:13;101669.63;;;11.35;90.51
17764;BME280;22245;52.832;13.816;2022-10-03T04:29:55;101678.72;;;11.33;91.05
17764;BME280;22245;52.832;13.816;2022-10-03T04:33:30;101682.75;;;11.38;91.27
17764;BME280;22245;52.832;13.816;2022-10-03T04:37:20;101696.41;;;11.34;91.27
17764;BME280;22245;52.832;13.816;2022-10-03T04:40:49;101687.88;;;11.41;91.11
17764;BME280;22245;52.832;13.816;2022-10-03T04:44:27;101687.88;;;11.41;91.54
17764;BME280;22245;52.832;13.816;2022-10-03T04:48:00;101689.78;;;11.39;91.45
17764;BME280;22245;52.832;13.816;2022-10-03T04:51:36;101692.34;;;11.41;91.83
17764;BME280;22245;52.832;13.816;2022-10-03T04:55:06;101700.47;;;11.39;92.60
17764;BME280;22245;52.832;13.816;2022-10-03T04:58:38;101705.91;;;11.38;92.41
17764;BME280;22245;52.832;13.816;2022-10-03T05:02:08;101700.66;;;11.36;92.87
17764;BME280;22245;52.832;13.816;2022-10-03T05:05:50;101703.88;;;11.41;92.37
17764;BME280;22245;52.832;13.816;2022-10-03T05:09:25;101704.59;;;11.43;92.09
17764;BME280;22245;52.832;13.816;2022-10-03T05:12:54;101709.22;;;11.41;92.12
17764;BME280;22245;52.832;13.816;2022-10-03T05:16:24;101711.88;;;11.41;91.60
17764;BME280;22245;52.832;13.816;2022-10-03T05:20:02;101711.00;;;11.41;91.70
17764;BME280;22245;52.832;13.816;2022-10-03T05:23:41;101719.88;;;11.41;91.74
17764;BME280;22245;52.832;13.816;2022-10-03T05:27:14;101719.56;;;11.33;90.94
17764;BME280;22245;52.832;13.816;2022-10-03T05:30:42;101725.97;;;11.31;92.22
17764;BME280;22245;52.832;13.816;2022-10-03T05:34:16;101722.06;;;11.23;92.39
17764;BME280;22245;52.832;13.816;2022-10-03T05:38:01;101732.09;;;11.20;93.04
17764;BME280;22245;52.832;13.816;2022-10-03T05:41:32;101730.16;;;11.22;93.66
17764;BME280;22245;52.832;13.816;2022-10-03T05:45:02;101735.72;;;11.19;93.44
17764;BME280;22245;52.832;13.816;2022-10-03T05:48:32;101737.31;;;11.21;93.27
17764;BME280;22245;52.832;13.816;2022-10-03T05:52:37;101736.38;;;11.22;93.72
17764;BME280;22245;52.832;13.816;2022-10-03T05:56:06;101748.00;;;11.21;93.67
17764;BME280;22245;52.832;13.816;2022-10-03T06:03:54;101752.13;;;11.25;93.24
17764;BME280;22245;52.832;13.816;2022-10-03T06:07:28;101749.91;;;11.19;92.88
17764;BME280;22245;52.832;13.816;2022-10-03T06:10:56;101762.06;;;11.23;93.32
17764;BME280;22245;52.832;13.816;2022-10-03T06:14:31;101765.34;;;11.27;93.23
17764;BME280;22245;52.832;13.816;2022-10-03T06:18:08;101768.75;;;11.29;92.84
17764;BME280;22245;52.832;13.816;2022-10-03T06:29:58;101780.06;;;11.33;93.46
17764;BME280;22245;52.832;13.816;2022-10-03T06:42:00;101790.59;;;11.34;93.71
17764;BME280;22245;52.832;13.816;2022-10-03T06:45:56;101793.50;;;11.31;93.77
17764;BME280;22245;52.832;13.816;2022-10-03T06:49:42;101792.31;;;11.35;93.59
17764;BME280;22245;52.832;13.816;2022-10-03T06:57:20;101797.53;;;11.37;93.74
17764;BME280;22245;52.832;13.816;2022-10-03T07:00:58;101800.72;;;11.42;93.47
17764;BME280;22245;52.832;13.816;2022-10-03T07:04:52;101808.84;;;11.40;93.74
17764;BME280;22245;52.832;13.816;2022-10-03T07:09:00;101813.84;;;11.45;93.88
17764;BME280;22245;52.832;13.816;2022-10-03T07:12:59;101808.19;;;11.50;93.06
17764;BME280;22245;52.832;13.816;2022-10-03T07:21:00;101817.88;;;11.64;92.81
17764;BME280;22245;52.832;13.816;2022-10-03T07:28:37;101821.28;;;11.66;91.83
17764;BME280;22245;52.832;13.816;2022-10-03T07:32:18;101821.88;;;11.69;92.62
17764;BME280;22245;52.832;13.816;2022-10-03T07:35:50;101826.25;;;11.70;91.69
17764;BME280;22245;52.832;13.816;2022-10-03T07:40:03;101830.44;;;11.75;91.00
17764;BME280;22245;52.832;13.816;2022-10-03T07:43:57;101826.03;;;11.73;90.70
17764;BME280;22245;52.832;13.816;2022-10-03T07:47:45;101835.78;;;11.75;90.61
17764;BME280;22245;52.832;13.816;2022-10-03T07:51:22;101845.25;;;11.79;89.58
17764;BME280;22245;52.832;13.816;2022-10-03T07:55:04;101838.38;;;11.87;89.63
17764;BME280;22245;52.832;13.816;2022-10-03T07:58:48;101834.63;;;11.90;89.08
17764;BME280;22245;52.832;13.816;2022-10-03T08:02:31;101851.63;;;11.89;88.95
17764;BME280;22245;52.832;13.816;2022-10-03T08:06:13;101850.75;;;11.88;88.26
17764;BME280;22245;52.832;13.816;2022-10-03T08:09:49;101863.03;;;11.91;88.24
17764;BME280;22245;52.832;13.816;2022-10-03T08:13:26;101861.84;;;11.95;87.54
17764;BME280;22245;52.832;13.816;2022-10-03T08:17:22;101869.53;;;12.00;87.48
17764;BME280;22245;52.832;13.816;2022-10-03T08:20:52;101864.00;;;12.03;87.07
17764;BME280;22245;52.832;13.816;2022-10-03T08:28:35;101876.13;;;12.07;86.45
17764;BME280;22245;52.832;13.816;2022-10-03T08:32:42;101874.22;;;12.09;84.78
17764;BME280;22245;52.832;13.816;2022-10-03T08:36:31;101863.19;;;12.14;84.54
17764;BME280;22245;52.832;13.816;2022-10-03T08:48:39;101878.31;;;12.26;80.45
17764;BME280;22245;52.832;13.816;2022-10-03T08:52:16;101884.88;;;12.34;79.69
17764;BME280;22245;52.832;13.816;2022-10-03T08:55:51;101891.59;;;12.39;79.70
17764;BME280;22245;52.832;13.816;2022-10-03T09:07:28;101894.88;;;12.43;79.29
17764;BME280;22245;52.832;13.816;2022-10-03T09:15:07;101895.69;;;12.56;78.36
17764;BME280;22245;52.832;13.816;2022-10-03T09:18:49;101905.16;;;12.61;76.71
17764;BME280;22245;52.832;13.816;2022-10-03T09:22:26;101904.47;;;12.70;78.09
17764;BME280;22245;52.832;13.816;2022-10-03T09:26:18;101895.47;;;12.71;76.55
17764;BME280;22245;52.832;13.816;2022-10-03T09:30:03;101905.94;;;12.85;76.42
17764;BME280;22245;52.832;13.816;2022-10-03T09:33:56;101904.53;;;12.93;75.02
17764;BME280;22245;52.832;13.816;2022-10-03T09:37:46;101903.81;;;12.91;75.49
17764;BME280;22245;52.832;13.816;2022-10-03T09:45:34;101907.44;;;12.90;74.13
17764;BME280;22245;52.832;13.816;2022-10-03T09:53:34;101905.28;;;13.06;72.83
17764;BME280;22245;52.832;13.816;2022-10-03T09:57:34;101911.38;;;13.08;73.67
17764;BME280;22245;52.832;13.816;2022-10-03T10:01:12;101917.94;;;13.15;73.17
17764;BME280;22245;52.832;13.816;2022-10-03T10:05:02;101915.16;;;13.17;72.27
17764;BME280;22245;52.832;13.816;2022-10-03T10:12:39;101913.47;;;13.27;71.01
17764;BME280;22245;52.832;13.816;2022-10-03T10:16:27;101899.34;;;13.37;72.18
17764;BME280;22245;52.832;13.816;2022-10-03T10:20:12;101899.75;;;13.43;70.08
17764;BME280;22245;52.832;13.816;2022-10-03T10:23:49;101905.00;;;13.45;69.29
17764;BME280;22245;52.832;13.816;2022-10-03T10:27:41;101909.25;;;13.48;70.26
17764;BME280;22245;52.832;13.816;2022-10-03T10:31:45;101903.16;;;13.57;70.01
17764;BME280;22245;52.832;13.816;2022-10-03T10:47:11;101917.38;;;13.69;67.72
17764;BME280;22245;52.832;13.816;2022-10-03T10:55:06;101900.00;;;13.74;67.75
17764;BME280;22245;52.832;13.816;2022-10-03T11:06:51;101902.63;;;14.09;68.27
17764;BME280;22245;52.832;13.816;2022-10-03T11:10:32;101899.22;;;14.07;67.92
17764;BME280;22245;52.832;13.816;2022-10-03T11:27:02;101889.03;;;14.33;66.24
17764;BME280;22245;52.832;13.816;2022-10-03T11:38:24;101896.03;;;14.45;65.65
17764;BME280;22245;52.832;13.816;2022-10-03T11:41:55;101892.50;;;14.45;65.86
17764;BME280;22245;52.832;13.816;2022-10-03T11:45:26;101896.72;;;14.59;67.11
17764;BME280;22245;52.832;13.816;2022-10-03T11:48:54;101896.84;;;14.57;66.18
17764;BME280;22245;52.832;13.816;2022-10-03T11:52:26;101895.38;;;14.53;67.43
17764;BME280;22245;52.832;13.816;2022-10-03T11:55:56;101898.66;;;14.57;68.40
17764;BME280;22245;52.832;13.816;2022-10-03T11:59:33;101898.78;;;14.55;69.00
17764;BME280;22245;52.832;13.816;2022-10-03T12:03:18;101901.00;;;14.50;69.63
17764;BME280;22245;52.832;13.816;2022-10-03T12:06:57;101892.72;;;14.53;69.45
17764;BME280;22245;52.832;13.816;2022-10-03T12:10:45;101884.41;;;14.56;70.11
17764;BME280;22245;52.832;13.816;2022-10-03T12:14:22;101888.31;;;14.52;71.79
17764;BME280;22245;52.832;13.816;2022-10-03T12:17:51;101896.09;;;14.55;71.09
17764;BME280;22245;52.832;13.816;2022-10-03T12:21:21;101899.31;;;14.49;71.12
17764;BME280;22245;52.832;13.816;2022-10-03T12:24:45;101896.47;;;14.51;71.66
17764;BME280;22245;52.832;13.816;2022-10-03T12:28:10;101899.09;;;14.41;73.63
17764;BME280;22245;52.832;13.816;2022-10-03T12:31:41;101905.75;;;14.46;75.22
17764;BME280;22245;52.832;13.816;2022-10-03T12:35:15;101916.38;;;14.37;76.90
17764;BME280;22245;52.832;13.816;2022-10-03T12:38:55;101910.66;;;14.41;77.03
17764;BME280;22245;52.832;13.816;2022-10-03T12:42:25;101905.19;;;14.43;77.21
17764;BME280;22245;52.832;13.816;2022-10-03T12:45:53;101904.06;;;14.45;77.10
17764;BME280;22245;52.832;13.816;2022-10-03T12:49:29;101898.44;;;14.48;76.96
17764;BME280;22245;52.832;13.816;2022-10-03T12:53:11;101901.22;;;14.58;77.25
17764;BME280;22245;52.832;13.816;2022-10-03T12:56:44;101905.59;;;14.59;75.65
17764;BME280;22245;52.832;13.816;2022-10-03T13:00:15;101896.56;;;14.60;75.75
17764;BME280;22245;52.832;13.816;2022-10-03T13:03:43;101899.50;;;14.57;75.11
17764;BME280;22245;52.832;13.816;2022-10-03T13:07:22;101892.97;;;14.50;75.45
17764;BME280;22245;52.832;13.816;2022-10-03T13:10:50;101893.81;;;14.51;75.46
17764;BME280;22245;52.832;13.816;2022-10-03T13:14:32;101897.81;;;14.56;76.09
17764;BME280;22245;52.832;13.816;2022-10-03T13:18:03;101895.31;;;14.65;76.04
17764;BME280;22245;52.832;13.816;2022-10-03T13:21:52;101901.16;;;14.70;75.51
17764;BME280;22245;52.832;13.816;2022-10-03T13:25:24;101898.47;;;14.70;75.56
17764;BME280;22245;52.832;13.816;2022-10-03T13:29:12;101908.72;;;14.65;75.53
17764;BME280;22245;52.832;13.816;2022-10-03T13:32:41;101920.84;;;14.59;76.44
17764;BME280;22245;52.832;13.816;2022-10-03T13:36:08;101922.06;;;14.55;78.61
17764;BME280;22245;52.832;13.816;2022-10-03T13:39:44;101929.78;;;14.48;80.24
17764;BME280;22245;52.832;13.816;2022-10-03T13:43:10;101935.16;;;14.37;81.97
17764;BME280;22245;52.832;13.816;2022-10-03T13:46:41;101928.59;;;14.29;82.60
17764;BME280;22245;52.832;13.816;2022-10-03T13:50:13;101917.94;;;14.18;83.54
17764;BME280;22245;52.832;13.816;2022-10-03T13:53:50;101913.66;;;14.15;84.95
17764;BME280;22245;52.832;13.816;2022-10-03T13:57:17;101902.22;;;14.13;86.09
17764;BME280;22245;52.832;13.816;2022-10-03T14:00:55;101905.19;;;13.99;86.82
17764;BME280;22245;52.832;13.816;2022-10-03T14:04:40;101897.75;;;14.02;86.73
17764;BME280;22245;52.832;13.816;2022-10-03T14:08:15;101905.06;;;13.89;84.60
17764;BME280;22245;52.832;13.816;2022-10-03T14:11:43;101904.56;;;13.95;85.99
17764;BME280;22245;52.832;13.816;2022-10-03T14:15:15;101904.00;;;13.92;86.52
17764;BME280;22245;52.832;13.816;2022-10-03T14:18:44;101909.31;;;14.03;86.13
17764;BME280;22245;52.832;13.816;2022-10-03T14:22:25;101906.13;;;14.09;85.74
17764;BME280;22245;52.832;13.816;2022-10-03T14:25:57;101910.88;;;14.17;85.00
17764;BME280;22245;52.832;13.816;2022-10-03T14:29:26;101915.72;;;14.23;84.89
17764;BME280;22245;52.832;13.816;2022-10-03T14:33:09;101905.25;;;14.20;84.02
17764;BME280;22245;52.832;13.816;2022-10-03T14:36:41;101904.28;;;14.21;84.95
17764;BME280;22245;52.832;13.816;2022-10-03T14:40:14;101901.09;;;14.27;84.53
17764;BME280;22245;52.832;13.816;2022-10-03T14:43:43;101905.09;;;14.33;84.42
17764;BME280;22245;52.832;13.816;2022-10-03T14:47:08;101897.78;;;14.35;84.31
17764;BME280;22245;52.832;13.816;2022-10-03T14:50:32;101885.44;;;14.44;85.03
17764;BME280;22245;52.832;13.816;2022-10-03T14:53:56;101892.25;;;14.48;83.86
17764;BME280;22245;52.832;13.816;2022-10-03T14:57:29;101896.56;;;14.60;83.50
17764;BME280;22245;52.832;13.816;2022-10-03T15:01:12;101881.09;;;14.64;82.57
17764;BME280;22245;52.832;13.816;2022-10-03T15:04:38;101887.75;;;14.70;80.90
17764;BME280;22245;52.832;13.816;2022-10-03T15:08:12;101883.13;;;14.72;81.62
17764;BME280;22245;52.832;13.816;2022-10-03T15:11:36;101877.91;;;14.70;77.75
17764;BME280;22245;52.832;13.816;2022-10-03T15:15:08;101888.50;;;14.72;81.73
17764;BME280;22245;52.832;13.816;2022-10-03T15:18:33;101880.44;;;14.72;83.04
17764;BME280;22245;52.832;13.816;2022-10-03T15:22:03;101895.28;;;14.76;82.36
17764;BME280;22245;52.832;13.816;2022-10-03T15:25:27;101895.78;;;14.70;79.04
17764;BME280;22245;52.832;13.816;2022-10-03T15:28:55;101900.13;;;14.61;75.50
17764;BME280;22245;52.832;13.816;2022-10-03T15:32:21;101906.13;;;14.53;72.17
17764;BME280;22245;52.832;13.816;2022-10-03T15:35:51;101913.69;;;14.48;71.76
17764;BME280;22245;52.832;13.816;2022-10-03T15:39:20;101909.47;;;14.34;71.95
17764;BME280;22245;52.832;13.816;2022-10-03T15:42:48;101902.75;;;14.40;72.21
17764;BME280;22245;52.832;13.816;2022-10-03T15:46:14;101895.56;;;14.40;71.73
17764;BME280;22245;52.832;13.816;2022-10-03T15:49:47;101901.91;;;14.39;72.29
17764;BME280;22245;52.832;13.816;2022-10-03T15:53:20;101905.19;;;14.43;71.50
17764;BME280;22245;52.832;13.816;2022-10-03T15:56:58;101886.34;;;14.33;71.83
17764;BME280;22245;52.832;13.816;2022-10-03T16:00:24;101898.63;;;14.36;71.28
17764;BME280;22245;52.832;13.816;2022-10-03T16:03:49;101900.72;;;14.32;71.85
17764;BME280;22245;52.832;13.816;2022-10-03T16:07:18;101906.06;;;14.32;70.28
17764;BME280;22245;52.832;13.816;2022-10-03T16:10:50;101895.97;;;14.24;69.70
17764;BME280;22245;52.832;13.816;2022-10-03T16:14:21;101898.81;;;14.23;69.84
17764;BME280;22245;52.832;13.816;2022-10-03T16:17:46;101895.72;;;14.27;70.22
17764;BME280;22245;52.832;13.816;2022-10-03T16:21:11;101899.69;;;14.12;68.79
17764;BME280;22245;52.832;13.816;2022-10-03T16:24:44;101906.03;;;14.11;69.88
17764;BME280;22245;52.832;13.816;2022-10-03T16:28:13;101893.81;;;14.18;69.07
17764;BME280;22245;52.832;13.816;2022-10-03T16:31:39;101896.50;;;14.18;68.67
17764;BME280;22245;52.832;13.816;2022-10-03T16:35:03;101901.25;;;14.14;67.71
17764;BME280;22245;52.832;13.816;2022-10-03T16:38:30;101897.38;;;14.07;67.97
17764;BME280;22245;52.832;13.816;2022-10-03T16:41:53;101898.72;;;14.13;67.75
17764;BME280;22245;52.832;13.816;2022-10-03T16:45:26;101895.41;;;14.09;67.74
17764;BME280;22245;52.832;13.816;2022-10-03T16:48:52;101903.69;;;14.06;67.53
17764;BME280;22245;52.832;13.816;2022-10-03T16:52:36;101906.53;;;14.04;67.52
17764;BME280;22245;52.832;13.816;2022-10-03T16:56:03;101901.28;;;14.03;67.55
17764;BME280;22245;52.832;13.816;2022-10-03T16:59:27;101902.38;;;14.00;66.89
17764;BME280;22245;52.832;13.816;2022-10-03T17:02:53;101898.25;;;13.96;67.10
17764;BME280;22245;52.832;13.816;2022-10-03T17:06:19;101894.72;;;13.96;67.82
17764;BME280;22245;52.832;13.816;2022-10-03T17:09:43;101904.97;;;13.91;68.30
17764;BME280;22245;52.832;13.816;2022-10-03T17:13:11;101897.66;;;13.93;68.38
17764;BME280;22245;52.832;13.816;2022-10-03T17:16:37;101910.19;;;13.92;70.56
17764;BME280;22245;52.832;13.816;2022-10-03T17:20:11;101904.25;;;13.88;70.59
17764;BME280;22245;52.832;13.816;2022-10-03T17:23:38;101900.94;;;13.85;71.46
17764;BME280;22245;52.832;13.816;2022-10-03T17:27:03;101897.91;;;13.78;72.70
17764;BME280;22245;52.832;13.816;2022-10-03T17:30:32;101902.19;;;13.69;73.63
17764;BME280;22245;52.832;13.816;2022-10-03T17:34:03;101902.06;;;13.59;73.53
17764;BME280;22245;52.832;13.816;2022-10-03T17:37:59;101905.59;;;13.49;74.35
17764;BME280;22245;52.832;13.816;2022-10-03T17:41:51;101903.63;;;13.39;73.87
17764;BME280;22245;52.832;13.816;2022-10-03T17:45:28;101905.91;;;13.32;74.44
17764;BME280;22245;52.832;13.816;2022-10-03T17:48:59;101897.91;;;13.21;74.54
17764;BME280;22245;52.832;13.816;2022-10-03T17:52:23;101893.38;;;13.10;74.87
17764;BME280;22245;52.832;13.816;2022-10-03T17:55:51;101900.41;;;13.00;74.92
17764;BME280;22245;52.832;13.816;2022-10-03T17:59:18;101895.78;;;12.91;75.45
17764;BME280;22245;52.832;13.816;2022-10-03T18:02:47;101895.50;;;12.82;76.09
17764;BME280;22245;52.832;13.816;2022-10-03T18:06:36;101909.56;;;12.73;76.87
17764;BME280;22245;52.832;13.816;2022-10-03T18:09:59;101911.75;;;12.68;76.52
17764;BME280;22245;52.832;13.816;2022-10-03T18:13:25;101906.88;;;12.62;76.58
17764;BME280;22245;52.832;13.816;2022-10-03T18:16:52;101910.00;;;12.55;77.19
17764;BME280;22245;52.832;13.816;2022-10-03T18:20:24;101907.66;;;12.51;76.77
17764;BME280;22245;52.832;13.816;2022-10-03T18:24:03;101896.47;;;12.45;77.17
17764;BME280;22245;52.832;13.816;2022-10-03T18:27:48;101895.09;;;12.40;77.53
17764;BME280;22245;52.832;13.816;2022-10-03T18:31:17;101900.81;;;12.35;77.94
17764;BME280;22245;52.832;13.816;2022-10-03T18:34:43;101896.78;;;12.29;78.37
17764;BME280;22245;52.832;13.816;2022-10-03T18:38:12;101893.47;;;12.26;78.42
17764;BME280;22245;52.832;13.816;2022-10-03T18:41:34;101900.88;;;12.22;78.11
17764;BME280;22245;52.832;13.816;2022-10-03T18:44:57;101904.50;;;12.21;78.57
17764;BME280;22245;52.832;13.816;2022-10-03T18:48:28;101905.47;;;12.20;78.18
17764;BME280;22245;52.832;13.816;2022-10-03T18:51:55;101903.75;;;12.19;79.07
17764;BME280;22245;52.832;13.816;2022-10-03T18:55:24;101909.22;;;12.18;78.97
17764;BME280;22245;52.832;13.816;2022-10-03T18:59:05;101907.50;;;12.16;79.41
17764;BME280;22245;52.832;13.816;2022-10-03T19:02:33;101911.03;;;12.17;79.69
17764;BME280;22245;52.832;13.816;2022-10-03T19:06:01;101911.78;;;12.19;79.49
17764;BME280;22245;52.832;13.816;2022-10-03T19:09:25;101912.75;;;12.18;80.01
17764;BME280;22245;52.832;13.816;2022-10-03T19:12:50;101907.28;;;12.20;79.97
17764;BME280;22245;52.832;13.816;2022-10-03T19:16:36;101912.63;;;12.20;80.84
17764;BME280;22245;52.832;13.816;2022-10-03T19:20:17;101913.25;;;12.23;80.31
17764;BME280;22245;52.832;13.816;2022-10-03T19:23:44;101907.91;;;12.23;79.97
17764;BME280;22245;52.832;13.816;2022-10-03T19:27:11;101906.06;;;12.24;80.51
17764;BME280;22245;52.832;13.816;2022-10-03T19:30:34;101909.63;;;12.24;80.94
17764;BME280;22245;52.832;13.816;2022-10-03T19:33:58;101905.97;;;12.25;80.57
17764;BME280;22245;52.832;13.816;2022-10-03T19:37:29;101913.25;;;12.23;80.81
17764;BME280;22245;52.832;13.816;2022-10-03T19:40:59;101906.81;;;12.26;80.95
17764;BME280;22245;52.832;13.816;2022-10-03T19:44:25;101905.00;;;12.26;80.78
17764;BME280;22245;52.832;13.816;2022-10-03T19:47:50;101910.34;;;12.26;81.07
17764;BME280;22245;52.832;13.816;2022-10-03T19:51:13;101909.47;;;12.26;80.74
17764;BME280;22245;52.832;13.816;2022-10-03T19:54:54;101914.09;;;12.24;81.13
17764;BME280;22245;52.832;13.816;2022-10-03T19:58:22;101904.50;;;12.21;81.48
17764;BME280;22245;52.832;13.816;2022-10-03T20:01:45;101918.81;;;12.20;81.77
17764;BME280;22245;52.832;13.816;2022-10-03T20:05:09;101913.47;;;12.20;81.46
17764;BME280;22245;52.832;13.816;2022-10-03T20:08:40;101913.59;;;12.19;81.85
17764;BME280;22245;52.832;13.816;2022-10-03T20:12:07;101911.88;;;12.18;82.39
17764;BME280;22245;52.832;13.816;2022-10-03T20:15:39;101907.50;;;12.16;82.51
17764;BME280;22245;52.832;13.816;2022-10-03T20:19:06;101906.03;;;12.12;82.85
17764;BME280;22245;52.832;13.816;2022-10-03T20:22:31;101901.56;;;12.13;83.16
17764;BME280;22245;52.832;13.816;2022-10-03T20:25:59;101902.50;;;12.12;83.72
17764;BME280;22245;52.832;13.816;2022-10-03T20:29:26;101892.78;;;12.11;83.96
17764;BME280;22245;52.832;13.816;2022-10-03T20:32:53;101902.63;;;12.10;84.19
17764;BME280;22245;52.832;13.816;2022-10-03T20:36:19;101884.75;;;12.11;84.29
17764;BME280;22245;52.832;13.816;2022-10-03T20:39:44;101887.66;;;12.08;84.54
17764;BME280;22245;52.832;13.816;2022-10-03T20:43:33;101898.34;;;12.08;84.84
17764;BME280;22245;52.832;13.816;2022-10-03T20:47:05;101892.16;;;12.07;85.52
17764;BME280;22245;52.832;13.816;2022-10-03T20:50:34;101901.88;;;12.08;85.43